Time;durP1;ratioP1;P1;durP2;ratioP2;P2;SDS_P1;SDS_P2;PMS_P1;PMS_P2;Temp;Humidity;BMP_temperature;BMP_pressure;BME280_temperature;BME280_humidity;BME280_pressure;Samples;Min_cycle;Max_cycle;Signal;HPM_P1;HPM_P2
2022/08/17 00:00:54;;;;;;;0.70;0.70;;;18.90;93.90;;;;;;5096665;28;20458;-70
2022/08/17 00:03:23;;;;;;;1.30;1.20;;;18.90;93.80;;;;;;5096313;28;20435;-70
2022/08/17 00:05:54;;;;;;;0.70;0.70;;;18.90;93.80;;;;;;5096626;28;20753;-70
2022/08/17 00:08:23;;;;;;;0.47;0.47;;;19.00;93.80;;;;;;5096264;28;20444;-69
2022/08/17 00:10:50;;;;;;;0.80;0.80;;;19.10;93.40;;;;;;5096271;28;20403;-69
2022/08/17 00:13:24;;;;;;;0.63;0.63;;;19.10;93.60;;;;;;5096516;28;20408;-70
2022/08/17 00:15:51;;;;;;;1.10;1.00;;;19.10;93.60;;;;;;5096374;28;20408;-70
2022/08/17 00:18:17;;;;;;;1.03;1.03;;;19.20;93.30;;;;;;5096063;28;20412;-70
2022/08/17 00:20:43;;;;;;;0.53;0.53;;;19.30;94.00;;;;;;5096306;28;20450;-69
2022/08/17 00:23:12;;;;;;;0.83;0.83;;;19.30;94.30;;;;;;5096200;28;20411;-70
2022/08/17 00:25:40;;;;;;;0.70;0.70;;;19.30;93.60;;;;;;5096213;28;20226;-70
2022/08/17 00:28:06;;;;;;;1.03;1.03;;;19.30;93.20;;;;;;5095789;28;20433;-69
2022/08/17 00:30:32;;;;;;;0.80;0.70;;;19.20;93.50;;;;;;5096402;28;20400;-69
2022/08/17 00:32:57;;;;;;;0.40;0.40;;;19.20;93.00;;;;;;5096196;28;20407;-69
2022/08/17 00:35:26;;;;;;;0.50;0.50;;;19.20;92.40;;;;;;5095958;28;20416;-69
2022/08/17 00:37:53;;;;;;;1.43;1.33;;;19.30;93.20;;;;;;5077506;28;20213;-70
2022/08/17 00:40:19;;;;;;;0.70;0.70;;;19.40;93.30;;;;;;5094924;28;20417;-70
2022/08/17 00:42:46;;;;;;;1.10;1.10;;;19.30;92.60;;;;;;5095934;28;20408;-70
2022/08/17 00:45:15;;;;;;;1.27;1.17;;;19.30;91.90;;;;;;5095676;28;20487;-70
2022/08/17 00:47:42;;;;;;;0.87;0.57;;;19.40;92.30;;;;;;5095424;28;20420;-69
2022/08/17 00:50:11;;;;;;;0.60;0.60;;;19.50;92.80;;;;;;5095645;28;20410;-70
2022/08/17 00:52:42;;;;;;;1.00;0.60;;;19.50;91.80;;;;;;5095660;28;20487;-69
2022/08/17 00:55:09;;;;;;;0.50;0.50;;;19.60;92.10;;;;;;5077687;28;20419;-68
2022/08/17 00:57:40;;;;;;;0.80;0.80;;;19.60;92.50;;;;;;5095015;28;20432;-70
2022/08/17 01:00:16;;;;;;;1.03;0.80;;;19.70;92.20;;;;;;5095380;28;20414;-70
2022/08/17 01:02:45;;;;;;;0.57;0.57;;;19.70;92.30;;;;;;5095365;28;20423;-70
2022/08/17 01:05:31;;;;;;;0.73;0.73;;;19.70;92.10;;;;;;5095375;28;20410;-69
2022/08/17 01:07:59;;;;;;;0.50;0.50;;;19.70;93.00;;;;;;5095196;28;20765;-70
2022/08/17 01:10:39;;;;;;;0.60;0.60;;;19.60;93.30;;;;;;5095248;28;20989;-69
2022/08/17 01:13:06;;;;;;;1.70;1.03;;;19.50;93.40;;;;;;5095428;28;20391;-70
2022/08/17 01:15:35;;;;;;;0.50;0.50;;;19.60;93.60;;;;;;5095360;28;20426;-70
2022/08/17 01:18:02;;;;;;;0.93;0.83;;;19.70;93.00;;;;;;5094852;28;20442;-70
2022/08/17 01:20:28;;;;;;;0.70;0.53;;;19.70;93.00;;;;;;5094951;28;20413;-69
2022/08/17 01:22:54;;;;;;;0.80;0.80;;;19.70;92.80;;;;;;5095027;28;20399;-68
2022/08/17 01:25:20;;;;;;;0.67;0.67;;;19.70;93.50;;;;;;5095022;28;20193;-70
2022/08/17 01:27:47;;;;;;;1.03;0.67;;;19.70;94.00;;;;;;5076497;28;21002;-70
2022/08/17 01:30:14;;;;;;;0.60;0.60;;;19.70;93.10;;;;;;5095064;28;20407;-69
2022/08/17 01:32:40;;;;;;;1.13;0.80;;;19.70;93.50;;;;;;5095013;28;20405;-70
2022/08/17 01:35:07;;;;;;;0.87;0.83;;;19.70;93.30;;;;;;5095146;28;20406;-70
2022/08/17 01:37:37;;;;;;;0.80;0.80;;;19.60;93.80;;;;;;5094700;28;20199;-71
2022/08/17 01:40:41;;;;;;;0.70;0.70;;;19.60;94.10;;;;;;5095089;28;20452;-70
2022/08/17 01:43:29;;;;;;;2.30;0.83;;;19.50;94.10;;;;;;5081073;28;20511;-69
2022/08/17 01:45:58;;;;;;;0.60;0.60;;;19.40;94.10;;;;;;5094725;28;20422;-70
2022/08/17 01:48:30;;;;;;;0.90;0.90;;;19.30;93.80;;;;;;5094441;28;20394;-69
2022/08/17 01:50:56;;;;;;;1.40;1.30;;;19.40;94.10;;;;;;5094301;28;20432;-70
2022/08/17 01:53:33;;;;;;;1.17;1.07;;;19.40;94.10;;;;;;5094558;28;20427;-70
2022/08/17 01:56:04;;;;;;;0.50;0.50;;;19.50;94.20;;;;;;5094513;28;20171;-70
2022/08/17 01:58:32;;;;;;;1.07;1.00;;;19.40;94.50;;;;;;5094236;28;20490;-69
2022/08/17 02:00:58;;;;;;;1.20;0.73;;;19.50;94.60;;;;;;5094424;28;20880;-70
2022/08/17 02:03:24;;;;;;;0.87;0.87;;;19.50;94.60;;;;;;5094204;28;20450;-70
2022/08/17 02:05:52;;;;;;;0.60;0.60;;;19.40;94.90;;;;;;5094325;28;20399;-69
2022/08/17 02:08:19;;;;;;;0.90;0.80;;;19.40;94.90;;;;;;5094104;28;20429;-71
2022/08/17 02:10:46;;;;;;;1.03;1.03;;;19.40;94.70;;;;;;5094093;28;20448;-70
2022/08/17 02:13:12;;;;;;;1.27;1.23;;;19.40;94.60;;;;;;5094247;28;20397;-70
2022/08/17 02:15:39;;;;;;;1.53;1.43;;;19.40;94.70;;;;;;5075878;28;20771;-69
2022/08/17 02:18:05;;;;;;;0.83;0.83;;;19.50;95.30;;;;;;5093680;28;20456;-69
2022/08/17 02:20:31;;;;;;;0.90;0.90;;;19.30;95.20;;;;;;5094028;28;20391;-70
2022/08/17 02:23:00;;;;;;;1.07;0.93;;;19.30;95.40;;;;;;5093812;28;20395;-69
2022/08/17 02:25:28;;;;;;;0.63;0.63;;;19.30;95.60;;;;;;5093840;28;20161;-69
2022/08/17 02:27:54;;;;;;;1.23;0.80;;;19.20;96.30;;;;;;5093508;28;20434;-70
2022/08/17 02:30:19;;;;;;;0.60;0.53;;;19.20;96.60;;;;;;5094242;28;20400;-71
2022/08/17 02:32:45;;;;;;;0.90;0.90;;;19.20;96.30;;;;;;5093873;28;20643;-70
2022/08/17 02:35:12;;;;;;;0.90;0.90;;;19.20;96.60;;;;;;5093879;28;20165;-70
2022/08/17 02:37:38;;;;;;;1.43;0.80;;;19.20;96.80;;;;;;5075225;28;20195;-70
2022/08/17 02:40:05;;;;;;;1.40;1.17;;;19.30;96.40;;;;;;5093647;28;20399;-69
2022/08/17 02:42:38;;;;;;;1.03;0.93;;;19.30;96.60;;;;;;5093711;28;20464;-69
2022/08/17 02:45:10;;;;;;;0.50;0.50;;;19.40;96.60;;;;;;5093874;28;20724;-70
2022/08/17 02:47:36;;;;;;;0.90;0.90;;;19.30;96.50;;;;;;5075476;28;20444;-70
2022/08/17 02:50:04;;;;;;;1.00;0.80;;;19.30;96.50;;;;;;5093771;28;20439;-69
2022/08/17 02:52:38;;;;;;;0.53;0.53;;;19.20;96.70;;;;;;5093450;28;20431;-70
2022/08/17 02:55:10;;;;;;;1.10;1.00;;;19.10;96.90;;;;;;5093522;28;20902;-69
2022/08/17 02:57:36;;;;;;;1.47;1.37;;;19.00;97.10;;;;;;5093503;28;20438;-70
2022/08/17 03:00:04;;;;;;;0.53;0.53;;;19.00;97.50;;;;;;5093680;28;20410;-69
2022/08/17 03:02:35;;;;;;;0.93;0.93;;;19.00;97.90;;;;;;5093223;28;20536;-70
2022/08/17 03:05:01;;;;;;;0.80;0.80;;;19.00;98.20;;;;;;5097365;28;20739;-69
2022/08/17 03:07:27;;;;;;;0.93;0.83;;;19.00;98.40;;;;;;5097598;28;20436;-69
2022/08/17 03:09:52;;;;;;;1.40;1.30;;;19.00;99.50;;;;;;5097530;28;20181;-70
2022/08/17 03:12:18;;;;;;;0.93;0.93;;;18.90;99.90;;;;;;5097717;28;20179;-70
2022/08/17 03:14:44;;;;;;;2.00;1.50;;;18.80;99.90;;;;;;5097664;28;20187;-69
2022/08/17 03:17:10;;;;;;;1.00;1.00;;;18.70;99.90;;;;;;5097492;28;20188;-69
2022/08/17 03:19:35;;;;;;;1.10;1.00;;;18.60;99.90;;;;;;5097152;28;20169;-69
2022/08/17 03:22:04;;;;;;;2.10;1.90;;;18.70;99.90;;;;;;5097325;28;20489;-69
2022/08/17 03:24:30;;;;;;;0.80;0.67;;;18.70;99.90;;;;;;5097545;28;20169;-69
2022/08/17 03:26:56;;;;;;;0.90;0.90;;;18.60;99.90;;;;;;5097426;28;20433;-69
2022/08/17 03:29:21;;;;;;;1.07;0.80;;;18.50;99.90;;;;;;5097099;28;20499;-70
2022/08/17 03:31:48;;;;;;;1.17;1.10;;;18.30;99.90;;;;;;5097389;28;20168;-70
2022/08/17 03:34:17;;;;;;;1.73;1.63;;;18.10;99.90;;;;;;5097164;28;20180;-69
2022/08/17 03:36:43;;;;;;;1.80;1.03;;;17.90;99.90;;;;;;5097153;28;20480;-69
2022/08/17 03:39:09;;;;;;;0.50;0.50;;;17.90;99.90;;;;;;5096920;28;20421;-70
2022/08/17 03:41:35;;;;;;;1.20;1.20;;;17.90;99.90;;;;;;5097243;28;20921;-70
2022/08/17 03:44:01;;;;;;;1.20;1.20;;;18.00;99.90;;;;;;5097099;28;20169;-70
2022/08/17 03:57:27;;;;;;;0.90;0.90;;;18.10;99.90;;;;;;5096929;28;20472;-70
2022/08/17 03:59:54;;;;;;;1.83;1.83;;;18.10;99.90;;;;;;5096383;28;20520;-70
2022/08/17 04:02:27;;;;;;;1.90;1.63;;;18.00;99.90;;;;;;5096484;28;20462;-69
2022/08/17 04:04:53;;;;;;;1.33;1.23;;;17.90;99.90;;;;;;5096696;28;20395;-69
2022/08/17 04:07:24;;;;;;;1.93;1.83;;;17.80;99.90;;;;;;5096534;28;20453;-69
2022/08/17 04:09:50;;;;;;;1.57;1.30;;;17.70;99.90;;;;;;5096384;28;20165;-71
2022/08/17 04:12:18;;;;;;;1.50;1.40;;;17.60;99.90;;;;;;5096500;28;20407;-69
2022/08/17 04:14:44;;;;;;;1.87;1.67;;;17.60;99.90;;;;;;5095440;28;20176;-69
2022/08/17 04:17:10;;;;;;;1.83;1.50;;;17.60;99.90;;;;;;5095986;28;20760;-69
2022/08/17 04:19:36;;;;;;;1.77;1.67;;;17.50;99.90;;;;;;5096159;28;20444;-69
2022/08/17 04:22:04;;;;;;;1.50;1.23;;;17.60;99.90;;;;;;5096004;28;20490;-69
2022/08/17 04:24:31;;;;;;;1.70;1.43;;;17.80;99.90;;;;;;5096064;28;20172;-70
2022/08/17 04:26:57;;;;;;;1.43;1.40;;;17.80;99.90;;;;;;5096071;28;20923;-69
2022/08/17 04:29:24;;;;;;;1.13;1.13;;;17.80;99.90;;;;;;5096042;28;20399;-70
2022/08/17 04:31:51;;;;;;;1.10;1.10;;;17.80;99.90;;;;;;5096167;28;20397;-70
2022/08/17 04:34:18;;;;;;;1.70;1.60;;;17.90;99.90;;;;;;5095947;28;20780;-70
2022/08/17 04:36:43;;;;;;;1.63;1.40;;;17.90;99.90;;;;;;5096074;28;20445;-69
2022/08/17 04:39:09;;;;;;;1.33;1.30;;;17.90;99.90;;;;;;5077511;28;20415;-69
2022/08/17 04:44:19;;;;;;;1.53;1.23;;;17.90;99.90;;;;;;5096344;28;20175;-69
2022/08/17 04:46:45;;;;;;;2.40;2.30;;;17.90;99.90;;;;;;5095654;28;20422;-69
2022/08/17 04:49:11;;;;;;;1.97;1.87;;;17.90;99.90;;;;;;5095550;28;20176;-70
2022/08/17 04:51:40;;;;;;;0.90;0.90;;;17.90;99.90;;;;;;5095775;28;20179;-69
2022/08/17 04:54:16;;;;;;;1.53;1.30;;;17.90;99.90;;;;;;5077622;28;20403;-70
2022/08/17 04:56:42;;;;;;;2.50;1.70;;;17.90;99.90;;;;;;5095807;28;20423;-71
2022/08/17 04:59:14;;;;;;;2.60;1.30;;;17.90;99.90;;;;;;5095314;28;20762;-70
2022/08/17 05:01:42;;;;;;;1.63;1.53;;;18.00;99.90;;;;;;5095697;28;20461;-69
2022/08/17 05:04:12;;;;;;;1.03;1.03;;;18.00;99.90;;;;;;5095671;28;20480;-69
2022/08/17 05:06:37;;;;;;;3.43;1.90;;;18.00;99.90;;;;;;5095327;28;20458;-70
2022/08/17 05:09:04;;;;;;;1.10;1.00;;;18.10;99.90;;;;;;5095217;28;20395;-70
2022/08/17 05:11:30;;;;;;;1.70;1.60;;;18.20;99.90;;;;;;5095496;28;20176;-69
2022/08/17 05:13:57;;;;;;;1.50;1.40;;;18.30;99.90;;;;;;5095298;28;20431;-69
2022/08/17 05:16:25;;;;;;;1.43;1.33;;;18.20;99.90;;;;;;5095236;28;20419;-70
2022/08/17 05:18:51;;;;;;;1.60;1.50;;;18.30;99.90;;;;;;5095085;28;20398;-70
2022/08/17 05:21:17;;;;;;;0.80;0.80;;;18.20;99.90;;;;;;5095133;28;20439;-71
2022/08/17 05:23:44;;;;;;;2.20;2.00;;;18.30;99.90;;;;;;5095181;28;20403;-70
2022/08/17 05:26:12;;;;;;;1.43;1.33;;;18.40;99.90;;;;;;5094535;28;20414;-69
2022/08/17 05:28:38;;;;;;;1.10;1.10;;;18.50;99.90;;;;;;5094949;28;20398;-69
2022/08/17 05:31:03;;;;;;;1.30;1.20;;;18.50;99.90;;;;;;5094951;28;20399;-70
2022/08/17 05:33:33;;;;;;;1.03;0.93;;;18.50;99.90;;;;;;5095262;28;20672;-69
2022/08/17 05:36:00;;;;;;;0.77;0.63;;;18.50;99.90;;;;;;5094431;28;20184;-69
2022/08/17 05:38:27;;;;;;;1.40;1.40;;;18.50;99.90;;;;;;5094647;28;20407;-70
2022/08/17 05:40:54;;;;;;;0.90;0.87;;;18.50;99.90;;;;;;5094511;28;20446;-70
2022/08/17 05:43:28;;;;;;;2.63;1.07;;;18.50;99.90;;;;;;5094688;28;20399;-69
2022/08/17 05:46:09;;;;;;;0.60;0.60;;;18.50;99.90;;;;;;5094609;28;20890;-70
2022/08/17 05:48:43;;;;;;;1.10;0.97;;;18.50;99.90;;;;;;5094406;28;20383;-70
2022/08/17 05:51:30;;;;;;;0.50;0.50;;;18.50;99.90;;;;;;5094683;28;20408;-70
2022/08/17 05:54:29;;;;;;;1.27;1.17;;;18.50;99.90;;;;;;5094550;28;20748;-69
2022/08/17 05:57:19;;;;;;;2.17;2.00;;;18.40;99.90;;;;;;5094390;28;20504;-69
2022/08/17 05:59:56;;;;;;;0.60;0.60;;;18.40;99.90;;;;;;5094187;28;20400;-70
2022/08/17 06:02:41;;;;;;;1.67;1.53;;;18.60;99.90;;;;;;5094301;28;20459;-69
2022/08/17 06:05:34;;;;;;;1.13;1.13;;;18.80;99.90;;;;;;5094430;28;20401;-69
2022/08/17 06:08:11;;;;;;;1.10;1.00;;;18.90;99.90;;;;;;5074748;28;21020;-69
2022/08/17 06:10:52;;;;;;;0.77;0.77;;;19.10;99.90;;;;;;5094204;28;20402;-69
2022/08/17 06:13:41;;;;;;;4.17;1.37;;;19.10;99.90;;;;;;5094387;28;20402;-70
2022/08/17 06:16:14;;;;;;;0.83;0.83;;;19.20;99.90;;;;;;5047976;28;20932;-69
2022/08/17 06:18:53;;;;;;;2.00;0.90;;;19.30;99.90;;;;;;5093941;28;20389;-70
2022/08/17 06:21:21;;;;;;;1.27;1.17;;;19.30;99.90;;;;;;5075902;28;20482;-69
2022/08/17 06:23:59;;;;;;;0.80;0.80;;;19.50;99.90;;;;;;5094087;28;20394;-70
2022/08/17 06:26:30;;;;;;;0.60;0.60;;;19.70;99.90;;;;;;5094091;28;20429;-70
2022/08/17 06:29:18;;;;;;;1.23;1.13;;;19.70;99.90;;;;;;5093862;28;20420;-69
2022/08/17 06:31:44;;;;;;;0.93;0.77;;;19.80;99.90;;;;;;5093967;28;20428;-69
2022/08/17 06:34:11;;;;;;;0.83;0.83;;;19.70;99.90;;;;;;5094025;28;20446;-70
2022/08/17 06:37:01;;;;;;;0.97;0.83;;;19.70;99.90;;;;;;5093933;28;20204;-69
2022/08/17 06:39:35;;;;;;;0.97;0.93;;;19.80;99.90;;;;;;5074785;28;20399;-70
2022/08/17 06:42:13;;;;;;;1.47;0.90;;;20.10;99.90;;;;;;5093909;28;20444;-69
2022/08/17 06:45:16;;;;;;;1.07;0.97;;;20.50;99.90;;;;;;5093881;28;20400;-69
2022/08/17 06:48:00;;;;;;;0.77;0.57;;;20.90;99.90;;;;;;5061663;28;20865;-70
2022/08/17 06:50:36;;;;;;;0.53;0.53;;;21.30;99.80;;;;;;5093892;28;20489;-70
2022/08/17 06:53:39;;;;;;;1.13;0.70;;;21.60;98.50;;;;;;5093822;28;20401;-70
2022/08/17 06:56:07;;;;;;;1.40;1.40;;;21.90;98.10;;;;;;5083278;28;20435;-71
2022/08/17 06:58:36;;;;;;;0.70;0.53;;;22.30;98.60;;;;;;5093575;28;20763;-69
2022/08/17 07:01:08;;;;;;;0.60;0.60;;;22.70;98.00;;;;;;5093542;28;20545;-70
2022/08/17 07:03:40;;;;;;;1.00;1.00;;;23.00;96.00;;;;;;5093347;28;20422;-70
2022/08/17 07:06:16;;;;;;;0.80;0.80;;;23.20;94.30;;;;;;5093570;28;20864;-70
2022/08/17 07:09:00;;;;;;;1.23;1.17;;;23.80;94.30;;;;;;5093359;28;20433;-71
2022/08/17 07:11:32;;;;;;;1.97;0.80;;;24.80;92.40;;;;;;5075435;28;20885;-70
2022/08/17 07:14:02;;;;;;;0.83;0.83;;;25.90;89.90;;;;;;5075691;28;20842;-70
2022/08/17 07:16:48;;;;;;;0.80;0.80;;;26.70;82.30;;;;;;5093458;28;20401;-70
2022/08/17 07:19:16;;;;;;;0.50;0.50;;;27.60;79.50;;;;;;5093217;28;20377;-70
2022/08/17 07:21:56;;;;;;;4.20;0.67;;;28.30;73.60;;;;;;5075103;28;20454;-69
2022/08/17 07:24:34;;;;;;;1.03;0.67;;;28.70;67.30;;;;;;5093413;28;20496;-71
2022/08/17 07:27:44;;;;;;;0.73;0.73;;;29.20;66.80;;;;;;5093327;28;20426;-71
2022/08/17 07:30:15;;;;;;;0.80;0.80;;;30.50;61.60;;;;;;5064408;28;20421;-71
2022/08/17 07:32:46;;;;;;;0.50;0.50;;;30.80;56.70;;;;;;5093477;28;20452;-71
2022/08/17 07:35:29;;;;;;;0.80;0.80;;;30.70;58.60;;;;;;5093342;28;20406;-70
2022/08/17 07:38:23;;;;;;;0.70;0.70;;;30.40;60.70;;;;;;5093204;28;20441;-70
2022/08/17 07:41:02;;;;;;;0.70;0.70;;;30.00;59.60;;;;;;5085972;28;20796;-71
2022/08/17 07:43:36;;;;;;;1.03;1.00;;;29.90;60.00;;;;;;5093295;28;20391;-71
2022/08/17 07:49:07;;;;;;;0.87;0.63;;;30.30;54.50;;;;;;5092978;28;20902;-71
2022/08/17 07:51:44;;;;;;;1.07;0.97;;;29.80;53.80;;;;;;5096786;28;20394;-70
2022/08/17 07:54:21;;;;;;;0.87;0.83;;;29.80;53.30;;;;;;5096746;28;20490;-71
2022/08/17 07:57:26;;;;;;;0.57;0.57;;;30.10;56.80;;;;;;5096871;28;20426;-71
2022/08/17 08:00:00;;;;;;;1.17;0.67;;;30.90;55.00;;;;;;5089182;28;20534;-71
2022/08/17 08:02:37;;;;;;;1.67;1.23;;;31.80;51.70;;;;;;5096558;28;20463;-71
2022/08/17 08:05:27;;;;;;;0.90;0.90;;;32.30;51.90;;;;;;5096849;28;20425;-71
2022/08/17 08:07:55;;;;;;;0.80;0.80;;;32.50;52.00;;;;;;5096359;28;20410;-70
2022/08/17 08:10:37;;;;;;;0.70;0.70;;;32.60;52.00;;;;;;5096713;28;20396;-71
2022/08/17 08:13:22;;;;;;;0.67;0.67;;;32.60;51.50;;;;;;5096430;28;20407;-71
2022/08/17 08:15:53;;;;;;;1.10;0.80;;;32.50;50.30;;;;;;5096810;28;20399;-71
2022/08/17 08:18:20;;;;;;;0.80;0.80;;;33.20;49.70;;;;;;5096132;28;20887;-70
2022/08/17 08:20:52;;;;;;;0.60;0.60;;;34.20;48.00;;;;;;5096457;28;20762;-70
2022/08/17 08:23:30;;;;;;;0.67;0.60;;;34.80;44.00;;;;;;5096356;28;20769;-69
2022/08/17 08:26:12;;;;;;;0.87;0.70;;;35.30;42.50;;;;;;5096328;28;20494;-70
2022/08/17 08:28:52;;;;;;;0.80;0.80;;;36.00;40.80;;;;;;5096141;28;20402;-69
2022/08/17 08:31:50;;;;;;;0.57;0.57;;;36.90;38.20;;;;;;5096283;28;20413;-69
2022/08/17 08:34:36;;;;;;;0.83;0.77;;;37.20;36.00;;;;;;5096107;28;20407;-69
2022/08/17 08:37:19;;;;;;;0.97;0.97;;;37.10;35.00;;;;;;5077897;28;20926;-68
2022/08/17 08:40:22;;;;;;;0.90;0.90;;;36.50;35.90;;;;;;5095980;28;20883;-70
2022/08/17 08:43:09;;;;;;;1.60;1.07;;;36.80;36.10;;;;;;5096043;28;20876;-69
2022/08/17 08:45:59;;;;;;;0.80;0.80;;;37.40;35.20;;;;;;5095964;28;20401;-69
2022/08/17 08:48:30;;;;;;;1.43;1.33;;;37.10;34.30;;;;;;5095638;28;20859;-69
2022/08/17 08:51:16;;;;;;;0.70;0.67;;;36.30;36.30;;;;;;5095916;28;20916;-68
2022/08/17 08:54:10;;;;;;;0.80;0.70;;;34.90;37.20;;;;;;5095010;28;20804;-69
2022/08/17 08:56:39;;;;;;;1.30;1.03;;;34.70;37.40;;;;;;5068917;28;20430;-69
2022/08/17 08:59:20;;;;;;;0.90;0.80;;;35.60;38.30;;;;;;5095477;28;20404;-69
2022/08/17 09:02:06;;;;;;;0.90;0.90;;;36.20;37.50;;;;;;5094592;28;20548;-70
2022/08/17 09:05:06;;;;;;;0.73;0.73;;;36.70;35.70;;;;;;5064008;28;20430;-69
2022/08/17 09:07:46;;;;;;;0.60;0.60;;;35.80;36.90;;;;;;5095533;28;20434;-68
2022/08/17 09:10:15;;;;;;;1.00;0.73;;;34.10;38.90;;;;;;5095790;28;20402;-70
2022/08/17 09:12:58;;;;;;;2.20;1.20;;;32.80;40.40;;;;;;5095414;28;20752;-69
2022/08/17 09:15:37;;;;;;;0.77;0.77;;;32.40;41.60;;;;;;5095395;28;20443;-70
2022/08/17 09:18:09;;;;;;;4.23;1.80;;;32.60;41.60;;;;;;5094989;28;20438;-69
2022/08/17 09:20:50;;;;;;;1.40;1.10;;;32.20;41.90;;;;;;5095132;28;20411;-69
2022/08/17 09:23:31;;;;;;;1.40;1.07;;;31.70;42.60;;;;;;5095311;28;20481;-69
2022/08/17 09:26:15;;;;;;;1.00;1.00;;;30.20;45.20;;;;;;5094855;28;20406;-67
2022/08/17 09:28:48;;;;;;;1.20;1.10;;;29.30;48.50;;;;;;5094908;28;20399;-68
2022/08/17 09:31:19;;;;;;;0.90;0.90;;;28.40;51.80;;;;;;5095143;28;20403;-69
2022/08/17 09:33:47;;;;;;;0.80;0.80;;;27.10;53.70;;;;;;5076910;28;20411;-69
2022/08/17 09:36:32;;;;;;;0.93;0.93;;;26.30;55.40;;;;;;5094873;28;20385;-69
2022/08/17 09:39:15;;;;;;;1.67;1.57;;;25.70;57.70;;;;;;5094808;28;20415;-68
2022/08/17 09:42:09;;;;;;;0.87;0.87;;;25.40;59.60;;;;;;5094631;28;20416;-67
2022/08/17 09:44:38;;;;;;;0.83;0.83;;;25.20;61.90;;;;;;5094866;28;20378;-68
2022/08/17 09:47:29;;;;;;;1.33;1.23;;;25.00;64.00;;;;;;5094709;28;20393;-68
2022/08/17 09:50:20;;;;;;;0.83;0.70;;;24.90;64.40;;;;;;5094507;28;20384;-67
2022/08/17 09:52:50;;;;;;;1.60;1.50;;;24.70;64.50;;;;;;5085986;28;20464;-68
2022/08/17 09:55:16;;;;;;;1.73;1.27;;;25.20;64.20;;;;;;5094469;28;20378;-68
2022/08/17 09:58:08;;;;;;;1.80;0.90;;;26.50;59.80;;;;;;5094253;28;20484;-68
2022/08/17 10:00:39;;;;;;;1.10;1.03;;;27.60;58.80;;;;;;5094547;28;20187;-69
2022/08/17 10:03:35;;;;;;;0.83;0.70;;;28.70;56.50;;;;;;5094189;28;20419;-69
2022/08/17 10:06:08;;;;;;;1.60;0.93;;;30.00;53.20;;;;;;5094295;28;20399;-69
2022/08/17 10:08:56;;;;;;;0.60;0.60;;;30.90;49.50;;;;;;5094097;28;20387;-69
2022/08/17 10:14:31;;;;;;;0.70;0.70;;;32.30;46.90;;;;;;5094182;28;20440;-68
2022/08/17 10:17:35;;;;;;;2.30;1.00;;;32.40;47.90;;;;;;5094178;28;20446;-68
2022/08/17 10:20:25;;;;;;;0.93;0.93;;;32.10;45.80;;;;;;5094262;28;20398;-68
2022/08/17 10:28:57;;;;;;;1.07;0.77;;;32.60;46.20;;;;;;5093864;28;20441;-69
2022/08/17 10:31:54;;;;;;;0.67;0.67;;;32.90;46.20;;;;;;5068197;28;20411;-69
2022/08/17 10:34:56;;;;;;;0.83;0.73;;;32.90;45.00;;;;;;5093110;28;20415;-68
2022/08/17 10:38:06;;;;;;;0.93;0.90;;;32.60;43.80;;;;;;5093894;28;20517;-69
2022/08/17 10:40:44;;;;;;;0.93;0.93;;;32.20;45.10;;;;;;5093736;28;20394;-69
2022/08/17 10:43:57;;;;;;;1.00;0.90;;;31.90;44.90;;;;;;5093951;28;20464;-69
2022/08/17 10:46:53;;;;;;;0.73;0.73;;;31.70;44.60;;;;;;5091289;28;20439;-68
2022/08/17 10:49:21;;;;;;;0.77;0.77;;;31.70;45.50;;;;;;5093418;28;20436;-69
2022/08/17 10:51:58;;;;;;;1.20;1.10;;;31.40;45.30;;;;;;5094017;28;20397;-69
2022/08/17 10:54:24;;;;;;;1.40;1.30;;;31.20;46.20;;;;;;5093681;28;20394;-69
2022/08/17 10:56:55;;;;;;;1.10;0.80;;;30.90;46.80;;;;;;5093329;28;20496;-68
2022/08/17 10:59:35;;;;;;;0.80;0.80;;;30.90;45.60;;;;;;5093441;28;20200;-69
2022/08/17 11:02:13;;;;;;;1.20;1.00;;;31.10;46.20;;;;;;5093533;28;20544;-69
2022/08/17 11:04:54;;;;;;;1.10;1.00;;;30.90;46.30;;;;;;5093707;28;20395;-68
2022/08/17 11:07:46;;;;;;;1.00;0.80;;;30.60;48.20;;;;;;5093580;28;20423;-69
2022/08/17 11:10:38;;;;;;;0.93;0.93;;;30.50;48.50;;;;;;5093597;28;20395;-68
2022/08/17 11:13:28;;;;;;;1.10;1.10;;;30.60;47.90;;;;;;5093472;28;20395;-69
2022/08/17 11:16:08;;;;;;;1.43;1.03;;;30.50;48.30;;;;;;5093616;28;20406;-68
2022/08/17 11:18:55;;;;;;;1.13;1.03;;;30.30;47.70;;;;;;5093443;28;20482;-67
2022/08/17 11:21:33;;;;;;;1.00;1.00;;;30.00;48.10;;;;;;5093683;28;20852;-68
2022/08/17 11:24:26;;;;;;;0.53;0.53;;;29.60;50.10;;;;;;5093582;28;20505;-68
2022/08/17 11:27:10;;;;;;;1.87;1.50;;;29.80;50.60;;;;;;5097516;28;20426;-69
2022/08/17 11:29:50;;;;;;;1.57;1.10;;;30.00;49.10;;;;;;5097226;28;20402;-69
2022/08/17 11:32:48;;;;;;;0.73;0.73;;;30.00;48.80;;;;;;5097189;28;20402;-69
2022/08/17 11:35:20;;;;;;;1.00;1.00;;;29.90;47.40;;;;;;5097173;28;20407;-69
2022/08/17 11:38:07;;;;;;;1.00;1.00;;;29.80;50.10;;;;;;5078680;28;20458;-69
2022/08/17 11:40:45;;;;;;;0.97;0.90;;;29.90;48.70;;;;;;5079031;28;20406;-69
2022/08/17 11:43:44;;;;;;;1.20;1.07;;;29.70;48.60;;;;;;5097176;28;20759;-69
2022/08/17 11:51:32;;;;;;;1.17;1.07;;;29.50;47.50;;;;;;5097113;28;20478;-68
2022/08/17 11:52:04;;;;;;;0.93;0.90;;;29.10;49.30;;;;;;5096742;28;20447;-68
2022/08/17 11:54:29;;;;;;;1.80;1.70;;;29.10;49.20;;;;;;5078588;28;20765;-68
2022/08/17 11:56:57;;;;;;;0.80;0.80;;;29.20;48.70;;;;;;5096826;28;20410;-69
2022/08/17 11:59:32;;;;;;;1.33;1.23;;;29.10;49.30;;;;;;5096649;28;20643;-67
2022/08/17 12:01:59;;;;;;;0.73;0.73;;;29.10;50.60;;;;;;5096479;28;20445;-68
2022/08/17 12:04:30;;;;;;;0.70;0.70;;;29.00;49.70;;;;;;5096636;28;20800;-68
2022/08/17 12:07:16;;;;;;;0.80;0.70;;;28.40;50.30;;;;;;5096741;28;20414;-68
2022/08/17 12:09:46;;;;;;;1.30;1.20;;;27.80;51.50;;;;;;5096504;28;20795;-69
2022/08/17 12:12:31;;;;;;;1.10;1.00;;;27.80;52.40;;;;;;5096619;28;20398;-68
2022/08/17 12:14:58;;;;;;;1.00;0.93;;;28.00;52.30;;;;;;5078183;28;20502;-68
2022/08/17 12:17:29;;;;;;;0.57;0.57;;;28.20;51.00;;;;;;5096336;28;20449;-69
2022/08/17 12:20:10;;;;;;;1.67;1.57;;;28.40;51.90;;;;;;5096301;28;20493;-69
2022/08/17 12:23:10;;;;;;;0.93;0.87;;;28.50;51.50;;;;;;5096306;28;20449;-69
2022/08/17 12:25:48;;;;;;;1.90;1.40;;;28.60;51.50;;;;;;5096244;28;20956;-68
2022/08/17 12:28:23;;;;;;;0.57;0.57;;;28.60;51.50;;;;;;5077835;28;20946;-68
2022/08/17 12:30:51;;;;;;;0.93;0.93;;;28.40;51.20;;;;;;5096307;28;20485;-68
2022/08/17 12:33:20;;;;;;;0.73;0.73;;;28.30;51.30;;;;;;5096218;28;20417;-68
2022/08/17 12:35:46;;;;;;;0.90;0.90;;;28.40;52.30;;;;;;5095278;28;20399;-69
2022/08/17 12:38:15;;;;;;;1.13;1.03;;;28.50;50.60;;;;;;5095503;28;20430;-69
2022/08/17 12:40:53;;;;;;;1.13;1.00;;;28.60;50.90;;;;;;5077728;28;20418;-68
2022/08/17 12:43:26;;;;;;;0.80;0.80;;;28.60;50.60;;;;;;5096103;28;20395;-68
2022/08/17 12:46:00;;;;;;;1.10;1.07;;;28.70;51.40;;;;;;5096315;28;20809;-69
2022/08/17 12:48:30;;;;;;;1.93;1.40;;;28.90;50.40;;;;;;5095821;28;20397;-68
2022/08/17 12:51:01;;;;;;;0.90;0.90;;;28.90;49.00;;;;;;5095766;28;20486;-69
2022/08/17 12:53:30;;;;;;;2.27;1.73;;;28.70;49.30;;;;;;5095774;28;20817;-68
2022/08/17 12:56:06;;;;;;;1.23;1.13;;;28.40;49.80;;;;;;5095771;28;20403;-69
2022/08/17 12:58:35;;;;;;;1.50;1.30;;;28.40;50.30;;;;;;5077330;28;20402;-69
2022/08/17 13:01:04;;;;;;;0.70;0.67;;;28.60;51.30;;;;;;5095499;28;20842;-69
2022/08/17 13:03:44;;;;;;;1.37;1.17;;;28.80;49.60;;;;;;5095469;28;20465;-69
2022/08/17 13:06:13;;;;;;;0.80;0.80;;;28.80;48.60;;;;;;5095686;28;20398;-68
2022/08/17 13:08:46;;;;;;;0.97;0.90;;;28.60;49.80;;;;;;5095201;28;20426;-68
2022/08/17 13:11:17;;;;;;;0.87;0.87;;;28.50;49.20;;;;;;5095588;28;20411;-68
2022/08/17 13:14:09;;;;;;;0.90;0.90;;;28.40;51.70;;;;;;5095313;28;20906;-68
2022/08/17 13:16:35;;;;;;;1.10;1.00;;;28.20;50.20;;;;;;5095350;28;20434;-68
2022/08/17 13:19:13;;;;;;;1.23;1.10;;;28.30;49.80;;;;;;5094842;28;20429;-68
2022/08/17 13:21:46;;;;;;;1.07;1.07;;;28.40;49.70;;;;;;5095297;28;20453;-68
2022/08/17 13:24:22;;;;;;;1.23;1.13;;;28.50;49.10;;;;;;5095163;28;20406;-69
2022/08/17 13:26:49;;;;;;;3.73;1.13;;;28.60;49.10;;;;;;5095138;28;20421;-68
2022/08/17 13:29:30;;;;;;;0.77;0.77;;;28.70;48.30;;;;;;5076874;28;20777;-68
2022/08/17 13:32:17;;;;;;;2.50;1.20;;;28.70;49.20;;;;;;5094874;28;20403;-69
2022/08/17 13:34:47;;;;;;;1.20;0.90;;;28.80;48.70;;;;;;5094994;28;20410;-68
2022/08/17 13:37:24;;;;;;;0.87;0.87;;;28.80;48.50;;;;;;5094894;28;20431;-68
2022/08/17 13:39:52;;;;;;;0.87;0.70;;;28.90;48.50;;;;;;5076585;28;20933;-69
2022/08/17 13:42:49;;;;;;;1.10;1.10;;;29.00;47.80;;;;;;5094626;28;20446;-68
2022/08/17 13:45:30;;;;;;;1.63;1.53;;;28.80;48.00;;;;;;5082082;28;20463;-68
2022/08/17 13:48:08;;;;;;;0.90;0.90;;;28.70;49.00;;;;;;5076099;28;20501;-68
2022/08/17 13:50:47;;;;;;;1.40;1.33;;;28.60;48.40;;;;;;5094778;28;20451;-69
2022/08/17 13:53:23;;;;;;;1.27;1.17;;;28.60;48.30;;;;;;5094786;28;20406;-68
2022/08/17 13:55:52;;;;;;;1.13;1.03;;;28.50;48.30;;;;;;5094598;28;20903;-68